Syosyun — JD2406 — position and weather

sailwx.info

Track history (hours):
 
Tides and Currents Weather Stations Pressure Air Temp Water Temp Dewpoint Dewpoint Depression Visibility Wind Speed Wind Dir Waves Ship Positions

Syosyun

Last reported at 2017-Mar-26 12:10 UTC. Time now 2017-Mar-27 12:42 UTC.
Position N 35°21' E 139°51'.

Length 74 m; draft 3.4 m.

Type: Cargo ship. MMSI: 431000201.

Date/timePositionNaut miles runAvg speedWind from/ knotsBaromVisibWave heightAir tempDewpointWater temp
2017-Mar-26 12:10N 35°21' E 139°51'0 0.6
2017-Mar-26 11:34N 35°21' E 139°51'0 0.0
2017-Mar-26 10:33N 35°21' E 139°51'0 0.0
2017-Mar-26 09:34N 35°21' E 139°51'0 0.0
2017-Mar-26 08:34N 35°21' E 139°51'0 0.0
2017-Mar-26 07:33N 35°21' E 139°51'0 0.0
2017-Mar-26 06:34N 35°21' E 139°51'0 0.1
2017-Mar-26 05:34N 35°21' E 139°51'0 0.1
2017-Mar-26 04:34N 35°21' E 139°51'0 0.0
2017-Mar-26 03:34N 35°21' E 139°51'1 0.6
2017-Mar-26 02:33N 35°22' E 139°51'0 0.0
2017-Mar-26 01:33N 35°22' E 139°51'0 0.0
2017-Mar-26 00:33N 35°22' E 139°51'0 0.0
2017-Mar-25 23:33N 35°22' E 139°51'0 0.0
2017-Mar-25 22:33N 35°22' E 139°51'0 0.0
2017-Mar-25 21:33N 35°22' E 139°51'0 0.0
2017-Mar-25 20:33N 35°22' E 139°51'0 0.0
2017-Mar-25 19:33N 35°22' E 139°51'0 0.0
2017-Mar-25 18:33N 35°22' E 139°51'0 0.0
2017-Mar-25 17:33N 35°22' E 139°51'0 0.0
2017-Mar-25 16:33N 35°22' E 139°51'0 0.0
2017-Mar-25 15:33N 35°22' E 139°51'0 0.0
2017-Mar-25 14:33N 35°22' E 139°51'0 0.0
2017-Mar-25 13:33N 35°22' E 139°51'0 0.0
2017-Mar-25 12:33N 35°22' E 139°51'0 0.0
2017-Mar-25 11:33N 35°22' E 139°51'0 0.3
2017-Mar-25 10:34N 35°21' E 139°50'0 0.0
2017-Mar-25 09:33N 35°21' E 139°50'0 0.0
2017-Mar-25 08:31N 35°21' E 139°50'2 1.6
2017-Mar-25 07:33N 35°23' E 139°50'1212.3
2017-Mar-25 06:33N 35°34' E 139°57'1 0.3
2017-Mar-25 02:20N 35°35' E 139°56'0 0.0
2017-Mar-24 13:23N 35°35' E 139°56'8 9.7
2017-Mar-24 12:33N 35°28' E 139°51'1010.1
2017-Mar-24 11:33N 35°20' E 139°44'356 9.1
2017-Mar-22 20:17N 33°58' E 132°44'811.2
2017-Mar-22 19:33N 33°53' E 132°36'  
2017-Mar-19 17:13N 33°45' E 132°27'7 9.8
2017-Mar-19 16:33N 33°48' E 132°34'10 8.8
2017-Mar-19 15:23N 33°56' E 132°40'344 9.3
2017-Mar-18 02:25N 35°02' E 139°30'1011.8
2017-Mar-18 01:33N 35°07' E 139°41'1010.3
2017-Mar-18 00:33N 35°17' E 139°44'8 8.2
2017-Mar-17 23:34N 35°25' E 139°47'5 2.2
2017-Mar-17 21:04N 35°21' E 139°51'0 0.0
2017-Mar-17 18:25N 35°21' E 139°51'0 0.0
2017-Mar-17 17:31N 35°21' E 139°51'0 0.0
2017-Mar-17 16:31N 35°21' E 139°51'0 0.0
2017-Mar-17 15:31N 35°21' E 139°51'0 0.0
2017-Mar-17 14:31N 35°21' E 139°51'0 0.0
2017-Mar-17 13:31N 35°21' E 139°51'0 0.0
2017-Mar-17 09:31N 35°21' E 139°51'0 0.0
2017-Mar-17 06:31N 35°21' E 139°51'0 0.0
2017-Mar-17 05:31N 35°21' E 139°51'0 0.0
2017-Mar-17 04:31N 35°21' E 139°51'0 0.0
2017-Mar-17 03:31N 35°21' E 139°51'0 0.0
2017-Mar-17 02:31N 35°21' E 139°51'0 0.0
2017-Mar-16 22:10N 35°21' E 139°51'0 0.0
2017-Mar-16 21:16N 35°21' E 139°51'0 0.0
2017-Mar-16 20:28N 35°21' E 139°51'0 0.0
2017-Mar-16 19:31N 35°21' E 139°51'0 0.0
2017-Mar-16 18:31N 35°21' E 139°51'2 1.8
2017-Mar-16 17:34N 35°23' E 139°51'2 1.9
2017-Mar-16 16:29N 35°22' E 139°53'0 0.0
2017-Mar-16 15:17N 35°22' E 139°53'  
Track history (hours):
 
Tides and Currents Weather Stations Pressure Air Temp Water Temp Dewpoint Dewpoint Depression Visibility Wind Speed Wind Dir Waves Ship Positions

Syosyun

Last reported at 2017-Mar-26 12:10 UTC. Time now 2017-Mar-27 12:42 UTC.
Position N 35°21' E 139°51'.

Length 74 m; draft 3.4 m.

Type: Cargo ship. MMSI: 431000201.

Date/timePositionNaut miles runAvg speedWind from/ knotsBaromVisibWave heightAir tempDewpointWater temp
2017-Mar-26 12:10N 35°21' E 139°51'0 0.6
2017-Mar-26 11:34N 35°21' E 139°51'0 0.0
2017-Mar-26 10:33N 35°21' E 139°51'0 0.0
2017-Mar-26 09:34N 35°21' E 139°51'0 0.0
2017-Mar-26 08:34N 35°21' E 139°51'0 0.0
2017-Mar-26 07:33N 35°21' E 139°51'0 0.0
2017-Mar-26 06:34N 35°21' E 139°51'0 0.1
2017-Mar-26 05:34N 35°21' E 139°51'0 0.1
2017-Mar-26 04:34N 35°21' E 139°51'0 0.0
2017-Mar-26 03:34N 35°21' E 139°51'1 0.6
2017-Mar-26 02:33N 35°22' E 139°51'0 0.0
2017-Mar-26 01:33N 35°22' E 139°51'0 0.0
2017-Mar-26 00:33N 35°22' E 139°51'0 0.0
2017-Mar-25 23:33N 35°22' E 139°51'0 0.0
2017-Mar-25 22:33N 35°22' E 139°51'0 0.0
2017-Mar-25 21:33N 35°22' E 139°51'0 0.0
2017-Mar-25 20:33N 35°22' E 139°51'0 0.0
2017-Mar-25 19:33N 35°22' E 139°51'0 0.0
2017-Mar-25 18:33N 35°22' E 139°51'0 0.0
2017-Mar-25 17:33N 35°22' E 139°51'0 0.0
2017-Mar-25 16:33N 35°22' E 139°51'0 0.0
2017-Mar-25 15:33N 35°22' E 139°51'0 0.0
2017-Mar-25 14:33N 35°22' E 139°51'0 0.0
2017-Mar-25 13:33N 35°22' E 139°51'0 0.0
2017-Mar-25 12:33N 35°22' E 139°51'0 0.0
2017-Mar-25 11:33N 35°22' E 139°51'0 0.3
2017-Mar-25 10:34N 35°21' E 139°50'0 0.0
2017-Mar-25 09:33N 35°21' E 139°50'0 0.0
2017-Mar-25 08:31N 35°21' E 139°50'2 1.6
2017-Mar-25 07:33N 35°23' E 139°50'1212.3
2017-Mar-25 06:33N 35°34' E 139°57'1 0.3
2017-Mar-25 02:20N 35°35' E 139°56'0 0.0
2017-Mar-24 13:23N 35°35' E 139°56'8 9.7
2017-Mar-24 12:33N 35°28' E 139°51'1010.1
2017-Mar-24 11:33N 35°20' E 139°44'356 9.1
2017-Mar-22 20:17N 33°58' E 132°44'811.2
2017-Mar-22 19:33N 33°53' E 132°36'  
2017-Mar-19 17:13N 33°45' E 132°27'7 9.8
2017-Mar-19 16:33N 33°48' E 132°34'10 8.8
2017-Mar-19 15:23N 33°56' E 132°40'344 9.3
2017-Mar-18 02:25N 35°02' E 139°30'1011.8
2017-Mar-18 01:33N 35°07' E 139°41'1010.3
2017-Mar-18 00:33N 35°17' E 139°44'8 8.2
2017-Mar-17 23:34N 35°25' E 139°47'5 2.2
2017-Mar-17 21:04N 35°21' E 139°51'0 0.0
2017-Mar-17 18:25N 35°21' E 139°51'0 0.0
2017-Mar-17 17:31N 35°21' E 139°51'0 0.0
2017-Mar-17 16:31N 35°21' E 139°51'0 0.0
2017-Mar-17 15:31N 35°21' E 139°51'0 0.0
2017-Mar-17 14:31N 35°21' E 139°51'0 0.0
2017-Mar-17 13:31N 35°21' E 139°51'0 0.0
2017-Mar-17 09:31N 35°21' E 139°51'0 0.0
2017-Mar-17 06:31N 35°21' E 139°51'0 0.0
2017-Mar-17 05:31N 35°21' E 139°51'0 0.0
2017-Mar-17 04:31N 35°21' E 139°51'0 0.0
2017-Mar-17 03:31N 35°21' E 139°51'0 0.0
2017-Mar-17 02:31N 35°21' E 139°51'0 0.0
2017-Mar-16 22:10N 35°21' E 139°51'0 0.0
2017-Mar-16 21:16N 35°21' E 139°51'0 0.0
2017-Mar-16 20:28N 35°21' E 139°51'0 0.0
2017-Mar-16 19:31N 35°21' E 139°51'0 0.0
2017-Mar-16 18:31N 35°21' E 139°51'2 1.8
2017-Mar-16 17:34N 35°23' E 139°51'2 1.9
2017-Mar-16 16:29N 35°22' E 139°53'0 0.0
2017-Mar-16 15:17N 35°22' E 139°53'  

Dump ship's entire track history